Time;durP1;ratioP1;P1;durP2;ratioP2;P2;SDS_P1;SDS_P2;PMS_P1;PMS_P2;Temp;Humidity;BMP_temperature;BMP_pressure;BME280_temperature;BME280_humidity;BME280_pressure;Samples;Min_cycle;Max_cycle;Signal;HPM_P1;HPM_P2
2022/06/13 00:01:16;;;;;;;2.65;0.70;;;12.10;75.10;;;;;;4965667;29;20039;-84
2022/06/13 00:03:45;;;;;;;5.15;1.00;;;12.10;75.00;;;;;;4957368;29;20138;-84
2022/06/13 00:06:13;;;;;;;8.73;0.88;;;12.20;74.90;;;;;;4969987;28;20050;-83
2022/06/13 00:08:41;;;;;;;5.07;1.10;;;12.20;74.90;;;;;;4962294;29;20059;-83
2022/06/13 00:11:13;;;;;;;1.77;0.65;;;12.30;74.90;;;;;;4968609;28;20042;-83
2022/06/13 00:13:43;;;;;;;3.35;0.68;;;12.30;74.80;;;;;;4951487;29;20043;-83
2022/06/13 00:16:14;;;;;;;3.33;0.85;;;12.30;74.90;;;;;;4967991;28;20057;-84
2022/06/13 00:18:52;;;;;;;4.90;0.85;;;12.30;74.80;;;;;;4958393;28;20500;-84
2022/06/13 00:21:26;;;;;;;4.43;0.93;;;12.30;74.80;;;;;;4953919;29;20047;-83
2022/06/13 00:23:54;;;;;;;4.65;0.70;;;12.30;74.70;;;;;;4956226;28;20044;-83
2022/06/13 00:26:24;;;;;;;5.07;0.70;;;12.30;74.80;;;;;;4954070;29;20378;-84
2022/06/13 00:28:52;;;;;;;4.30;0.70;;;12.30;74.70;;;;;;4950433;29;20055;-83
2022/06/13 00:31:20;;;;;;;5.18;0.70;;;12.40;74.80;;;;;;4955940;29;20396;-84
2022/06/13 00:33:49;;;;;;;2.00;0.65;;;12.30;74.70;;;;;;4956729;29;20051;-84
2022/06/13 00:36:21;;;;;;;2.08;0.68;;;12.40;74.90;;;;;;4953728;29;20040;-84
2022/06/13 00:38:50;;;;;;;3.43;0.60;;;12.30;75.10;;;;;;4935730;29;20055;-84
2022/06/13 00:41:26;;;;;;;3.10;0.80;;;12.30;75.30;;;;;;4938402;29;20078;-85
2022/06/13 00:43:54;;;;;;;3.58;0.82;;;12.30;75.50;;;;;;4945312;29;20397;-84
2022/06/13 00:46:32;;;;;;;3.80;1.00;;;12.30;75.50;;;;;;4935008;29;20517;-84
2022/06/13 00:49:26;;;;;;;4.53;0.77;;;12.30;75.60;;;;;;4926330;29;20055;-84
2022/06/13 00:52:13;;;;;;;;;;;12.30;75.70;;;;;;4946530;29;20389;-83
2022/06/13 00:54:43;;;;;;;4.50;0.60;;;12.30;75.70;;;;;;4949306;29;20392;-84
2022/06/13 00:57:16;;;;;;;2.33;0.85;;;12.30;75.60;;;;;;4952314;29;20413;-84
2022/06/13 00:59:46;;;;;;;4.40;0.60;;;12.30;75.60;;;;;;4948845;29;20431;-84
2022/06/13 01:02:13;;;;;;;6.55;1.00;;;12.30;75.70;;;;;;4946097;28;20056;-84
2022/06/13 01:04:41;;;;;;;3.97;0.95;;;12.30;75.90;;;;;;4944162;29;20513;-85
2022/06/13 01:07:10;;;;;;;2.88;0.77;;;12.20;76.00;;;;;;4947903;29;20039;-84
2022/06/13 01:12:28;;;;;;;4.97;0.90;;;12.10;76.10;;;;;;4949750;28;20383;-84
2022/06/13 01:15:18;;;;;;;3.03;0.80;;;12.10;76.40;;;;;;4947042;29;20051;-83
2022/06/13 01:18:12;;;;;;;3.25;1.00;;;12.10;76.60;;;;;;4937725;29;20054;-84
2022/06/13 01:20:45;;;;;;;5.50;0.98;;;12.00;76.70;;;;;;4951225;29;20059;-84
2022/06/13 01:23:32;;;;;;;6.00;0.90;;;12.00;76.50;;;;;;4946400;29;20050;-84
2022/06/13 01:26:26;;;;;;;2.60;0.70;;;12.00;76.60;;;;;;4951231;29;20051;-84
2022/06/13 01:29:06;;;;;;;2.95;0.70;;;12.10;76.70;;;;;;4950256;29;20047;-84
2022/06/13 01:31:46;;;;;;;2.65;0.50;;;12.10;76.50;;;;;;4940655;29;20054;-84
2022/06/13 01:34:38;;;;;;;3.42;0.57;;;12.10;76.60;;;;;;4948079;29;20043;-83
2022/06/13 01:37:54;;;;;;;3.97;0.68;;;12.10;76.50;;;;;;4946126;29;20043;-84
2022/06/13 01:40:24;;;;;;;3.03;0.52;;;12.10;76.60;;;;;;4878654;29;20060;-83
2022/06/13 01:42:52;;;;;;;4.78;0.85;;;12.10;76.60;;;;;;4880449;29;20068;-83
2022/06/13 01:45:40;;;;;;;4.72;0.85;;;12.10;76.60;;;;;;4881296;29;20056;-83
2022/06/13 01:48:18;;;;;;;3.05;1.02;;;12.10;76.60;;;;;;4878001;29;20052;-84
2022/06/13 01:50:54;;;;;;;3.33;0.93;;;12.10;76.70;;;;;;4878975;29;20068;-84
2022/06/13 01:53:58;;;;;;;3.45;0.75;;;12.10;76.70;;;;;;4876897;29;20060;-84
2022/06/13 01:56:55;;;;;;;4.18;0.95;;;12.10;76.70;;;;;;4878704;29;20489;-84
2022/06/13 01:59:32;;;;;;;4.80;0.60;;;12.10;76.80;;;;;;4882490;29;20060;-84
2022/06/13 02:02:08;;;;;;;6.60;0.70;;;12.20;76.80;;;;;;4880854;29;20053;-84
2022/06/13 02:04:40;;;;;;;2.80;0.93;;;12.10;77.00;;;;;;4884167;29;20594;-84
2022/06/13 02:07:14;;;;;;;3.83;1.13;;;12.10;77.00;;;;;;4866638;29;20092;-84
2022/06/13 02:09:50;;;;;;;7.88;1.15;;;12.10;77.30;;;;;;4877689;29;20229;-84
2022/06/13 02:12:22;;;;;;;5.60;1.20;;;12.00;77.30;;;;;;4873214;29;20048;-84
2022/06/13 02:14:57;;;;;;;6.75;1.17;;;12.00;77.50;;;;;;4882361;29;20053;-84
2022/06/13 02:17:30;;;;;;;4.80;1.50;;;12.00;78.00;;;;;;4955284;29;20128;-84
2022/06/13 02:20:07;;;;;;;7.50;1.08;;;12.00;77.90;;;;;;4942875;29;20048;-83
2022/06/13 02:22:36;;;;;;;10.82;1.30;;;11.90;78.30;;;;;;4950594;29;20512;-82
2022/06/13 02:25:06;;;;;;;6.80;0.80;;;11.90;78.50;;;;;;4953958;28;20051;-82
2022/06/13 02:27:38;;;;;;;7.93;1.27;;;11.80;79.20;;;;;;4949628;29;20055;-82
2022/06/13 02:30:12;;;;;;;4.70;1.00;;;11.80;79.50;;;;;;4953853;28;20043;-82
2022/06/13 02:33:04;;;;;;;2.95;0.93;;;11.70;80.20;;;;;;4947107;29;20052;-82
2022/06/13 02:35:48;;;;;;;5.35;1.20;;;11.70;81.00;;;;;;4949431;29;20047;-82
2022/06/13 02:38:19;;;;;;;6.05;1.10;;;11.60;81.80;;;;;;4953081;29;20427;-82
2022/06/13 02:41:10;;;;;;;7.93;1.38;;;11.50;82.40;;;;;;4950917;29;20035;-82
2022/06/13 02:43:51;;;;;;;4.20;1.20;;;11.50;82.30;;;;;;4950977;29;20072;-82
2022/06/13 02:46:25;;;;;;;7.03;1.00;;;11.50;82.80;;;;;;4951687;29;20051;-82
2022/06/13 02:49:04;;;;;;;4.20;1.10;;;11.40;83.00;;;;;;4947982;29;20050;-83
2022/06/13 02:51:56;;;;;;;5.93;1.20;;;11.40;82.90;;;;;;4954604;29;20054;-82
2022/06/13 02:54:41;;;;;;;6.82;1.08;;;11.40;83.00;;;;;;4954614;29;20397;-82
2022/06/13 02:57:57;;;;;;;5.38;1.10;;;11.30;83.10;;;;;;4932809;29;20401;-83
2022/06/13 03:00:49;;;;;;;5.25;1.08;;;11.30;83.00;;;;;;4931616;29;20055;-83
2022/06/13 03:03:31;;;;;;;5.25;1.20;;;11.30;83.00;;;;;;4949535;29;20042;-84
2022/06/13 03:06:04;;;;;;;6.65;1.27;;;11.40;82.80;;;;;;4940914;29;20062;-83
2022/06/13 03:08:32;;;;;;;;;;;11.40;82.80;;;;;;4929392;29;20055;-83
2022/06/13 03:11:34;;;;;;;7.80;1.42;;;11.30;82.70;;;;;;4949338;29;19922;-83
2022/06/13 03:14:17;;;;;;;5.00;1.05;;;11.40;82.70;;;;;;4952973;29;20489;-84
2022/06/13 03:17:05;;;;;;;5.55;1.05;;;11.40;82.70;;;;;;4953215;29;20055;-83
2022/06/13 03:19:44;;;;;;;4.18;1.20;;;11.40;82.70;;;;;;4947271;29;20050;-84
2022/06/13 03:22:20;;;;;;;7.80;1.17;;;11.40;83.00;;;;;;4951055;29;20054;-84
2022/06/13 03:25:11;;;;;;;7.97;1.15;;;11.40;83.00;;;;;;4942349;28;20052;-83
2022/06/13 03:28:15;;;;;;;4.57;1.10;;;11.40;83.00;;;;;;4951503;29;20102;-84
2022/06/13 03:30:49;;;;;;;7.53;1.15;;;11.30;83.20;;;;;;4895582;29;20092;-84
2022/06/13 03:33:42;;;;;;;9.85;1.30;;;11.30;83.10;;;;;;4894015;29;20079;-84
2022/06/13 03:36:17;;;;;;;7.40;1.38;;;11.30;83.00;;;;;;4890992;29;20052;-85
2022/06/13 03:39:05;;;;;;;5.80;1.05;;;11.40;83.00;;;;;;4892335;29;20360;-84
2022/06/13 03:41:36;;;;;;;5.38;1.10;;;11.30;83.10;;;;;;4878510;29;20060;-83
2022/06/13 03:44:21;;;;;;;5.57;1.10;;;11.40;83.20;;;;;;4893917;29;20048;-84
2022/06/13 03:46:57;;;;;;;5.63;0.90;;;11.40;83.30;;;;;;4894560;29;20304;-84
2022/06/13 03:49:29;;;;;;;8.27;1.38;;;11.30;83.10;;;;;;4880715;29;20045;-84
2022/06/13 03:51:59;;;;;;;6.40;1.20;;;11.40;83.10;;;;;;4874545;29;20406;-84
2022/06/13 03:54:39;;;;;;;5.57;1.20;;;11.40;83.00;;;;;;4879787;29;20152;-84
2022/06/13 03:57:20;;;;;;;3.22;1.00;;;11.30;83.00;;;;;;4890592;29;20061;-85
2022/06/13 03:59:52;;;;;;;6.90;1.45;;;11.30;83.00;;;;;;4878607;29;20111;-84
2022/06/13 04:02:25;;;;;;;5.28;1.33;;;11.30;83.10;;;;;;4873297;29;20048;-84
2022/06/13 04:04:53;;;;;;;6.30;1.45;;;11.30;83.30;;;;;;4895191;29;20063;-83
2022/06/13 04:07:22;;;;;;;4.13;1.45;;;11.20;83.30;;;;;;4915869;29;20066;-83
2022/06/13 04:10:05;;;;;;;6.30;1.50;;;11.20;83.40;;;;;;4953493;29;20512;-83
2022/06/13 04:12:54;;;;;;;5.35;1.50;;;11.20;83.50;;;;;;4943504;29;20039;-83
2022/06/13 04:15:43;;;;;;;4.72;1.58;;;11.20;83.50;;;;;;4953719;28;20059;-82
2022/06/13 04:18:22;;;;;;;8.07;1.60;;;11.20;83.50;;;;;;4944720;29;20032;-83
2022/06/13 04:21:05;;;;;;;8.95;1.63;;;11.10;83.50;;;;;;4945480;29;20505;-84
2022/06/13 04:23:36;;;;;;;8.47;1.63;;;11.20;83.60;;;;;;4940891;29;20047;-83
2022/06/13 04:26:04;;;;;;;10.00;1.50;;;11.20;83.60;;;;;;4945787;29;20290;-83
2022/06/13 04:28:36;;;;;;;9.20;1.73;;;11.20;83.60;;;;;;4952637;29;20032;-82
2022/06/13 04:31:07;;;;;;;4.30;1.40;;;11.30;83.50;;;;;;4968486;29;20053;-83
2022/06/13 04:33:51;;;;;;;4.70;1.65;;;11.30;83.50;;;;;;4969074;28;20047;-83
2022/06/13 04:36:21;;;;;;;5.15;1.65;;;11.40;83.50;;;;;;4964617;29;20039;-84
2022/06/13 04:38:53;;;;;;;12.10;2.38;;;11.40;83.40;;;;;;4960251;28;20090;-83
2022/06/13 04:41:26;;;;;;;4.80;1.17;;;11.50;83.50;;;;;;4967012;29;20052;-84
2022/06/13 04:43:57;;;;;;;10.75;1.98;;;11.50;83.50;;;;;;4971194;29;20054;-83
2022/06/13 04:46:27;;;;;;;4.53;1.85;;;11.50;83.40;;;;;;4961815;29;20065;-85
2022/06/13 04:48:58;;;;;;;7.95;2.05;;;11.60;83.30;;;;;;4955961;29;20135;-84
2022/06/13 04:51:31;;;;;;;10.35;2.58;;;11.70;83.30;;;;;;4952073;29;20051;-84
2022/06/13 04:54:00;;;;;;;;;;;11.70;83.30;;;;;;4943291;29;20065;-83
2022/06/13 04:56:29;;;;;;;9.35;1.73;;;11.80;83.20;;;;;;4959102;29;19922;-87
2022/06/13 04:58:59;;;;;;;6.00;1.50;;;11.80;83.10;;;;;;4958329;29;20536;-85
2022/06/13 05:01:46;;;;;;;5.95;1.92;;;11.80;83.00;;;;;;4950048;29;20070;-83
2022/06/13 05:04:20;;;;;;;6.95;1.77;;;11.90;82.90;;;;;;4956979;29;20052;-83
2022/06/13 05:06:50;;;;;;;8.43;1.88;;;11.90;82.90;;;;;;4957769;29;20055;-82
2022/06/13 05:09:29;;;;;;;9.05;2.30;;;12.00;82.80;;;;;;4958172;29;20039;-83
2022/06/13 05:12:06;;;;;;;7.28;2.30;;;12.00;82.80;;;;;;4956354;29;20227;-83
2022/06/13 05:14:42;;;;;;;7.40;2.08;;;11.90;82.80;;;;;;4955880;29;20044;-84
2022/06/13 05:17:27;;;;;;;8.38;2.20;;;11.90;82.90;;;;;;4943290;29;20055;-83
2022/06/13 05:20:18;;;;;;;6.72;1.80;;;11.90;82.90;;;;;;4950015;29;20074;-85
2022/06/13 05:23:08;;;;;;;10.68;1.92;;;11.90;83.00;;;;;;4948844;29;20051;-84
2022/06/13 05:25:47;;;;;;;7.38;2.17;;;11.90;83.00;;;;;;4954478;29;20051;-84
2022/06/13 05:28:18;;;;;;;9.35;1.80;;;11.90;83.00;;;;;;4954592;29;20497;-85
2022/06/13 05:30:49;;;;;;;5.90;1.67;;;11.90;82.90;;;;;;4954814;29;20400;-84
2022/06/13 05:33:20;;;;;;;8.40;1.98;;;11.90;82.90;;;;;;4950196;29;20048;-84
2022/06/13 05:35:52;;;;;;;12.40;2.30;;;11.80;83.00;;;;;;4953932;29;20044;-85
2022/06/13 05:38:28;;;;;;;12.02;2.30;;;11.80;83.00;;;;;;4950647;29;20062;-85
2022/06/13 05:40:55;;;;;;;7.10;1.63;;;11.80;83.10;;;;;;4953211;29;20047;-83
2022/06/13 05:43:23;;;;;;;9.20;1.80;;;11.80;83.30;;;;;;4951239;28;20431;-84
2022/06/13 05:45:51;;;;;;;11.75;1.90;;;11.70;83.30;;;;;;4942522;29;20043;-84
2022/06/13 05:48:21;;;;;;;6.60;1.92;;;11.60;83.50;;;;;;4950948;29;20047;-84
2022/06/13 05:50:49;;;;;;;10.05;1.77;;;11.50;83.60;;;;;;4952328;29;20534;-84
2022/06/13 05:53:23;;;;;;;7.35;1.65;;;11.50;83.70;;;;;;4945482;29;20055;-84
2022/06/13 05:55:54;;;;;;;6.85;1.55;;;11.60;83.60;;;;;;4945434;29;20417;-84
2022/06/13 05:58:22;;;;;;;6.80;1.70;;;11.60;83.50;;;;;;4944497;29;20047;-85
2022/06/13 06:00:57;;;;;;;4.97;1.30;;;11.60;83.50;;;;;;4962577;28;20055;-85
2022/06/13 06:03:25;;;;;;;7.43;1.65;;;11.60;83.50;;;;;;4933163;29;20485;-84
2022/06/13 06:05:55;;;;;;;9.23;1.63;;;11.80;83.30;;;;;;4943047;28;20055;-84
2022/06/13 06:08:28;;;;;;;11.57;1.65;;;11.80;83.10;;;;;;4953108;29;20051;-84
2022/06/13 06:10:58;;;;;;;7.35;2.00;;;11.90;83.00;;;;;;4953001;29;20036;-83
2022/06/13 06:13:27;;;;;;;7.93;1.70;;;11.90;82.80;;;;;;4953583;29;20058;-84
2022/06/13 06:15:56;;;;;;;9.57;1.60;;;12.10;82.60;;;;;;4948716;29;20055;-83
2022/06/13 06:18:26;;;;;;;6.88;1.63;;;12.20;82.30;;;;;;4953793;29;20074;-79
2022/06/13 06:20:53;;;;;;;7.20;1.55;;;12.30;82.20;;;;;;4953857;29;20043;-83
2022/06/13 06:23:21;;;;;;;10.05;1.73;;;12.40;81.80;;;;;;4957235;28;20426;-83
2022/06/13 06:25:50;;;;;;;7.68;1.70;;;12.50;81.60;;;;;;4956595;29;20401;-83
2022/06/13 06:28:24;;;;;;;8.45;1.55;;;12.50;81.30;;;;;;4954439;29;20062;-83
2022/06/13 06:30:54;;;;;;;10.60;1.77;;;12.50;80.90;;;;;;4954034;28;20058;-83
2022/06/13 06:33:23;;;;;;;16.10;2.13;;;12.60;81.10;;;;;;4950915;29;20047;-84
2022/06/13 06:35:51;;;;;;;16.30;2.63;;;12.80;81.10;;;;;;4950487;29;20408;-84
2022/06/13 06:38:22;;;;;;;11.27;2.00;;;12.90;80.60;;;;;;4949810;29;20066;-84
2022/06/13 06:40:50;;;;;;;11.40;2.13;;;13.10;80.30;;;;;;4950843;29;20039;-84
2022/06/13 06:43:18;;;;;;;19.55;2.53;;;13.10;80.10;;;;;;4948152;29;20385;-84
2022/06/13 06:45:46;;;;;;;8.95;1.88;;;13.30;79.80;;;;;;4951588;29;20405;-84
2022/06/13 06:48:21;;;;;;;10.18;3.60;;;13.40;79.40;;;;;;4948684;29;20051;-84
2022/06/13 06:50:49;;;;;;;8.10;3.20;;;13.40;78.90;;;;;;4949970;29;20047;-83
2022/06/13 06:53:19;;;;;;;16.27;2.85;;;13.50;77.70;;;;;;4937062;29;20048;-84
2022/06/13 07:01:27;;;;;;;9.90;1.92;;;13.50;77.10;;;;;;4946427;29;20055;-82
2022/06/13 07:03:55;;;;;;;8.95;1.70;;;13.40;77.20;;;;;;4943886;29;20524;-84
2022/06/13 07:06:23;;;;;;;8.18;1.70;;;13.40;77.10;;;;;;4940004;29;20043;-84
2022/06/13 07:08:51;;;;;;;6.03;1.45;;;13.40;77.20;;;;;;4949690;29;20051;-85
2022/06/13 07:14:09;;;;;;;7.22;1.73;;;13.50;76.90;;;;;;4954278;29;20055;-85
2022/06/13 07:16:37;;;;;;;7.93;1.75;;;13.40;76.80;;;;;;4955073;28;20054;-84
2022/06/13 07:19:04;;;;;;;15.27;2.38;;;13.40;76.80;;;;;;4954783;29;20057;-87
2022/06/13 07:21:32;;;;;;;5.45;1.33;;;13.50;76.90;;;;;;4952306;29;20394;-85
2022/06/13 07:24:00;;;;;;;8.30;1.50;;;13.40;76.40;;;;;;4952483;29;20055;-85
2022/06/13 07:26:28;;;;;;;4.55;1.15;;;13.30;76.40;;;;;;4956691;29;20055;-85
2022/06/13 07:28:56;;;;;;;9.02;1.30;;;13.30;76.50;;;;;;4954174;29;20047;-87
2022/06/13 07:31:32;;;;;;;8.38;1.30;;;13.20;76.60;;;;;;4956791;29;20043;-84
2022/06/13 07:34:00;;;;;;;9.88;1.50;;;13.10;76.80;;;;;;4955256;29;20055;-84
2022/06/13 07:36:28;;;;;;;16.02;2.03;;;13.10;77.00;;;;;;4956671;29;20490;-84
2022/06/13 07:38:55;;;;;;;8.65;2.20;;;13.00;77.20;;;;;;4956435;29;20124;-84
2022/06/13 07:41:25;;;;;;;4.38;1.23;;;13.00;77.40;;;;;;4956674;29;20054;-84
2022/06/13 07:43:55;;;;;;;8.77;1.90;;;13.00;77.60;;;;;;4954480;29;20639;-84
2022/06/13 07:46:28;;;;;;;34.83;3.55;;;13.00;77.80;;;;;;4954085;29;20058;-77
2022/06/13 07:48:57;;;;;;;5.40;1.73;;;13.10;77.80;;;;;;4954420;29;20051;-76
2022/06/13 07:51:25;;;;;;;14.23;2.40;;;13.30;77.80;;;;;;4953590;29;20047;-83
2022/06/13 07:53:53;;;;;;;10.68;2.55;;;13.30;77.60;;;;;;4952961;29;20054;-83
2022/06/13 07:56:27;;;;;;;9.07;2.72;;;13.50;77.10;;;;;;4955081;29;20408;-83
2022/06/13 07:58:57;;;;;;;13.25;2.45;;;13.70;76.40;;;;;;4949695;28;20597;-82
2022/06/13 08:01:26;;;;;;;11.43;2.72;;;13.80;75.90;;;;;;4935687;29;20050;-83
2022/06/13 08:03:54;;;;;;;9.85;2.38;;;14.10;75.20;;;;;;4934329;29;20052;-82
2022/06/13 08:06:23;;;;;;;8.73;2.67;;;14.30;74.70;;;;;;4935525;29;20520;-81
2022/06/13 08:08:51;;;;;;;7.38;2.28;;;14.40;74.20;;;;;;4934911;29;20077;-81
2022/06/13 08:11:37;;;;;;;7.82;2.28;;;14.60;74.00;;;;;;4942494;29;20058;-82
2022/06/13 08:14:06;;;;;;;8.27;1.95;;;14.60;73.30;;;;;;4957340;28;20055;-82
2022/06/13 08:16:36;;;;;;;5.95;1.98;;;14.60;73.30;;;;;;4955849;29;20153;-83
2022/06/13 08:19:05;;;;;;;6.20;2.00;;;14.50;73.20;;;;;;4954466;29;20051;-81
2022/06/13 08:21:35;;;;;;;6.05;1.75;;;14.30;73.10;;;;;;4937402;29;20442;-81
2022/06/13 08:24:04;;;;;;;11.77;2.47;;;14.30;73.40;;;;;;4954065;29;20055;-82
2022/06/13 08:26:40;;;;;;;9.38;2.13;;;14.20;73.60;;;;;;4955431;28;20043;-82
2022/06/13 08:29:08;;;;;;;6.47;2.08;;;14.10;73.50;;;;;;4954807;28;20489;-82
2022/06/13 08:31:36;;;;;;;14.80;1.63;;;14.10;73.70;;;;;;4953948;29;20043;-82
2022/06/13 08:34:07;;;;;;;7.75;1.90;;;14.10;73.70;;;;;;4953752;29;20504;-82
2022/06/13 08:36:34;;;;;;;10.85;1.88;;;14.20;73.70;;;;;;4953156;29;20059;-83
2022/06/13 08:39:02;;;;;;;8.18;2.15;;;14.30;73.50;;;;;;4955891;29;20050;-82
2022/06/13 08:41:41;;;;;;;13.82;2.20;;;14.30;72.70;;;;;;4955486;29;20094;-83
2022/06/13 08:44:30;;;;;;;9.70;1.98;;;14.50;72.70;;;;;;4959045;29;20044;-82
2022/06/13 08:47:32;;;;;;;8.50;2.50;;;14.70;72.10;;;;;;4955607;29;20047;-82
2022/06/13 08:50:37;;;;;;;10.98;2.75;;;15.10;71.30;;;;;;4948811;29;20047;-82
2022/06/13 08:53:56;;;;;;;8.07;1.67;;;15.30;70.00;;;;;;4954436;29;20389;-83
2022/06/13 08:56:29;;;;;;;11.00;2.53;;;15.30;69.00;;;;;;4920064;29;20062;-84
2022/06/13 08:59:22;;;;;;;;;;;15.40;68.90;;;;;;4973482;29;20053;-84
2022/06/13 09:01:50;;;;;;;11.55;2.35;;;15.30;67.70;;;;;;4970760;29;19926;-84
2022/06/13 09:04:25;;;;;;;9.82;3.35;;;15.30;68.60;;;;;;4969013;28;20061;-81
2022/06/13 09:07:00;;;;;;;14.15;3.20;;;15.30;68.50;;;;;;4968933;29;20062;-82
2022/06/13 09:09:39;;;;;;;8.80;1.98;;;15.30;68.60;;;;;;4958221;28;20050;-81
2022/06/13 09:12:39;;;;;;;10.18;2.00;;;15.30;68.30;;;;;;4961099;29;20513;-81
2022/06/13 09:15:13;;;;;;;5.70;1.80;;;15.20;67.70;;;;;;4951194;29;20141;-82
2022/06/13 09:18:01;;;;;;;;;;;15.20;67.60;;;;;;4950651;29;20047;-82
2022/06/13 09:20:58;;;;;;;7.70;1.60;;;15.10;67.40;;;;;;4958083;28;19922;-84
2022/06/13 09:23:50;;;;;;;8.57;1.55;;;14.90;67.80;;;;;;4942294;29;20048;-83
2022/06/13 09:26:22;;;;;;;12.82;1.55;;;14.80;68.30;;;;;;4942059;29;20313;-82
2022/06/13 09:29:09;;;;;;;12.57;1.98;;;14.70;68.50;;;;;;4951780;29;20047;-84
2022/06/13 09:31:41;;;;;;;5.97;1.13;;;14.70;68.90;;;;;;4947631;29;20043;-84
2022/06/13 09:34:39;;;;;;;6.40;1.30;;;14.60;68.60;;;;;;4953601;29;20047;-83
2022/06/13 09:37:18;;;;;;;7.97;1.20;;;14.60;68.60;;;;;;4936886;29;20643;-83
2022/06/13 09:39:46;;;;;;;9.02;1.52;;;14.50;68.30;;;;;;4953619;28;20050;-82
2022/06/13 09:42:17;;;;;;;9.02;1.40;;;14.50;68.50;;;;;;4955942;29;20051;-83
2022/06/13 09:44:57;;;;;;;5.43;1.23;;;14.70;68.40;;;;;;4957400;29;20059;-81
2022/06/13 09:47:45;;;;;;;11.80;1.63;;;14.70;68.40;;;;;;4957614;29;20050;-83
2022/06/13 09:50:31;;;;;;;8.52;1.35;;;14.70;68.30;;;;;;4956380;29;20047;-83
2022/06/13 09:53:11;;;;;;;5.72;1.33;;;14.70;68.00;;;;;;4940802;29;20413;-83
2022/06/13 09:56:25;;;;;;;9.35;1.52;;;14.70;68.10;;;;;;4957246;29;20047;-83
2022/06/13 09:59:20;;;;;;;7.35;1.65;;;14.80;68.00;;;;;;4921817;28;20070;-83
2022/06/13 10:02:00;;;;;;;9.65;1.50;;;14.80;67.70;;;;;;4957260;29;20058;-83
2022/06/13 10:04:33;;;;;;;9.77;1.30;;;14.90;67.30;;;;;;4950609;29;20051;-82
2022/06/13 10:07:20;;;;;;;7.28;1.17;;;15.00;66.30;;;;;;4979402;28;20370;-82
2022/06/13 10:10:10;;;;;;;22.25;1.70;;;15.00;66.10;;;;;;4954580;29;20058;-82
2022/06/13 10:12:41;;;;;;;;;;;15.00;65.90;;;;;;4956856;29;20409;-82
2022/06/13 10:15:24;;;;;;;6.18;1.20;;;15.10;65.00;;;;;;4956902;29;19923;-83
2022/06/13 10:18:02;;;;;;;59.13;3.88;;;15.30;64.50;;;;;;4956271;29;20048;-82
2022/06/13 10:21:00;;;;;;;6.35;1.15;;;15.30;64.50;;;;;;4956288;29;20427;-81
2022/06/13 10:23:42;;;;;;;5.82;1.40;;;15.40;64.50;;;;;;4937606;28;20408;-83
2022/06/13 10:26:26;;;;;;;3.77;1.10;;;15.60;64.50;;;;;;4956241;29;20054;-83
2022/06/13 10:29:28;;;;;;;10.02;1.50;;;15.70;63.80;;;;;;4956553;29;20655;-84
2022/06/13 10:32:26;;;;;;;16.88;1.23;;;15.80;62.50;;;;;;4955055;29;20058;-82
2022/06/13 10:35:19;;;;;;;7.55;1.40;;;15.80;60.80;;;;;;4954254;29;20062;-82
2022/06/13 10:38:22;;;;;;;8.23;1.33;;;16.00;61.50;;;;;;4928755;28;20047;-82
2022/06/13 10:40:51;;;;;;;9.25;1.20;;;16.20;61.20;;;;;;4954789;29;20074;-82
2022/06/13 10:43:19;;;;;;;3.63;0.85;;;16.50;60.80;;;;;;4954898;29;20047;-83
2022/06/13 10:45:47;;;;;;;6.15;1.17;;;16.70;60.30;;;;;;4955913;29;20047;-83
2022/06/13 10:48:34;;;;;;;4.97;1.20;;;16.80;59.70;;;;;;4960385;29;20043;-83
2022/06/13 10:51:04;;;;;;;3.85;0.93;;;16.80;59.30;;;;;;4956072;28;20051;-82
2022/06/13 10:54:07;;;;;;;3.50;0.93;;;17.00;58.90;;;;;;4958262;29;20393;-82
2022/06/13 10:56:50;;;;;;;5.07;1.10;;;17.10;58.30;;;;;;4952947;29;20059;-83
2022/06/13 10:59:27;;;;;;;14.20;1.73;;;17.30;57.60;;;;;;4937797;29;20063;-82
2022/06/13 11:02:01;;;;;;;4.47;1.08;;;17.40;56.90;;;;;;4936560;29;20044;-82
2022/06/13 11:04:34;;;;;;;6.35;1.20;;;17.60;56.10;;;;;;4936341;29;20071;-82
2022/06/13 11:07:04;;;;;;;;;;;17.80;56.00;;;;;;4937346;29;20052;-83
2022/06/13 11:09:46;;;;;;;8.40;1.40;;;17.90;54.40;;;;;;4936661;29;19922;-83
2022/06/13 11:12:34;;;;;;;9.10;1.70;;;18.00;54.30;;;;;;4938855;29;20063;-82
2022/06/13 11:23:50;;;;;;;16.48;1.95;;;18.00;53.60;;;;;;4937160;29;20047;-78
2022/06/13 11:29:06;;;;;;;5.97;1.20;;;17.80;54.30;;;;;;4953096;29;20059;-81
2022/06/13 11:31:46;;;;;;;13.50;1.60;;;17.60;55.10;;;;;;4951034;29;20055;-80
2022/06/13 11:34:28;;;;;;;9.77;1.75;;;17.40;55.60;;;;;;4930609;29;20043;-81
2022/06/13 11:37:22;;;;;;;6.15;1.35;;;17.40;55.90;;;;;;4951178;29;20062;-82
2022/06/13 11:39:52;;;;;;;3.97;1.10;;;17.30;56.10;;;;;;4939373;29;20058;-81
2022/06/13 11:42:28;;;;;;;6.20;1.40;;;17.30;56.30;;;;;;4953997;29;20055;-82
2022/06/13 11:45:04;;;;;;;5.43;1.20;;;17.30;56.30;;;;;;4950264;29;20046;-81
2022/06/13 11:47:45;;;;;;;7.63;1.70;;;17.30;56.30;;;;;;4952454;29;20047;-83
2022/06/13 11:50:25;;;;;;;7.10;1.40;;;17.50;55.80;;;;;;4952913;29;20058;-82
2022/06/13 11:56:12;;;;;;;25.38;1.98;;;17.40;55.70;;;;;;4947213;29;20043;-80
2022/06/13 11:58:46;;;;;;;8.77;1.20;;;17.40;55.60;;;;;;4933792;29;20064;-81
2022/06/13 12:01:20;;;;;;;5.32;1.17;;;17.60;55.70;;;;;;4942662;29;20042;-83
2022/06/13 12:04:01;;;;;;;3.17;0.82;;;17.90;55.20;;;;;;4953292;28;20043;-83
2022/06/13 12:06:37;;;;;;;8.18;1.10;;;18.20;54.30;;;;;;4953910;29;20051;-86
2022/06/13 12:09:17;;;;;;;9.20;1.55;;;18.40;53.40;;;;;;4953314;29;20055;-81
2022/06/13 12:11:52;;;;;;;8.40;1.15;;;18.60;52.30;;;;;;4935229;29;20150;-83
2022/06/13 12:14:20;;;;;;;14.75;2.13;;;18.70;52.20;;;;;;4935286;29;20059;-82
2022/06/13 12:17:05;;;;;;;6.70;1.40;;;18.80;52.60;;;;;;4935390;29;20052;-80
2022/06/13 12:19:35;;;;;;;21.83;1.70;;;18.90;52.20;;;;;;4934828;29;20055;-81
2022/06/13 12:22:20;;;;;;;7.88;1.50;;;19.00;50.40;;;;;;4941681;29;20048;-81
2022/06/13 12:25:09;;;;;;;4.63;0.75;;;19.10;50.80;;;;;;4952884;29;20055;-80
2022/06/13 12:27:49;;;;;;;24.80;1.92;;;19.30;50.30;;;;;;4943262;28;20056;-81
2022/06/13 12:30:35;;;;;;;5.63;1.00;;;19.40;50.10;;;;;;4942814;29;20082;-81
2022/06/13 12:33:17;;;;;;;4.47;1.52;;;19.60;49.20;;;;;;4947060;29;20051;-80
2022/06/13 12:36:00;;;;;;;6.68;1.20;;;19.80;48.70;;;;;;4950422;29;20495;-80
2022/06/13 12:38:45;;;;;;;5.85;0.93;;;19.90;48.40;;;;;;4940965;29;20066;-79
2022/06/13 12:41:42;;;;;;;22.85;1.83;;;20.30;47.60;;;;;;4941205;29;20039;-81
2022/06/13 12:44:31;;;;;;;17.92;1.77;;;20.40;46.70;;;;;;4946380;29;20059;-81
2022/06/13 12:47:26;;;;;;;6.68;1.27;;;20.20;46.20;;;;;;4938537;29;20051;-81
2022/06/13 12:50:12;;;;;;;18.63;1.92;;;19.60;46.80;;;;;;4948811;29;20060;-80
2022/06/13 12:52:43;;;;;;;11.52;1.70;;;19.20;48.10;;;;;;4950436;29;20047;-80
2022/06/13 12:55:33;;;;;;;9.23;1.55;;;18.90;48.70;;;;;;4938400;29;20043;-81
2022/06/13 12:58:26;;;;;;;6.70;1.50;;;18.80;49.00;;;;;;4949467;29;20405;-80
2022/06/13 13:01:10;;;;;;;9.57;1.33;;;18.80;49.40;;;;;;4941487;29;20052;-81
2022/06/13 13:03:55;;;;;;;5.78;1.23;;;18.80;49.30;;;;;;4943522;28;20052;-81
2022/06/13 13:06:58;;;;;;;9.23;1.38;;;18.80;50.00;;;;;;4947765;29;20056;-82
2022/06/13 13:09:45;;;;;;;5.95;1.15;;;18.70;50.30;;;;;;4939494;29;20098;-82
2022/06/13 13:12:32;;;;;;;5.07;1.25;;;18.50;51.00;;;;;;4948589;29;20058;-81
2022/06/13 13:15:14;;;;;;;6.03;1.20;;;18.40;51.50;;;;;;4952177;28;20051;-82
2022/06/13 13:17:50;;;;;;;3.63;1.00;;;18.40;51.40;;;;;;4950197;28;20544;-82
2022/06/13 13:20:30;;;;;;;7.40;1.25;;;18.30;51.20;;;;;;4939925;29;20056;-81
2022/06/13 13:23:42;;;;;;;5.50;1.35;;;18.40;51.20;;;;;;4955529;29;20050;-81
2022/06/13 13:26:35;;;;;;;9.60;1.15;;;18.60;51.20;;;;;;4891267;29;20056;-81
2022/06/13 13:29:25;;;;;;;7.47;1.17;;;18.90;50.70;;;;;;4911653;29;20060;-81
2022/06/13 13:32:08;;;;;;;6.70;1.33;;;19.10;50.50;;;;;;4915067;29;20053;-81
2022/06/13 13:34:54;;;;;;;7.88;1.30;;;19.20;50.10;;;;;;4916111;29;20101;-81
2022/06/13 13:37:35;;;;;;;4.30;1.00;;;19.30;49.60;;;;;;4905036;29;20064;-82
2022/06/13 13:40:41;;;;;;;7.57;1.42;;;19.20;49.60;;;;;;4917360;28;20048;-82
2022/06/13 13:43:21;;;;;;;8.13;1.30;;;19.20;49.80;;;;;;4915846;29;20067;-82
2022/06/13 13:46:14;;;;;;;6.53;1.20;;;19.30;49.50;;;;;;4917161;28;20062;-82
2022/06/13 13:49:00;;;;;;;3.67;1.07;;;19.20;49.40;;;;;;4898279;29;20061;-82
2022/06/13 13:51:40;;;;;;;4.38;1.40;;;19.00;49.80;;;;;;4898989;29;20287;-83
2022/06/13 13:54:31;;;;;;;4.03;1.30;;;18.80;50.30;;;;;;4897095;29;20056;-83
2022/06/13 13:57:12;;;;;;;37.65;3.92;;;18.70;50.60;;;;;;4896859;29;20045;-82
2022/06/13 13:59:46;;;;;;;6.18;1.73;;;18.60;51.00;;;;;;4897354;29;20064;-83
2022/06/13 14:02:38;;;;;;;20.48;2.20;;;18.30;51.30;;;;;;4912902;29;20116;-83
2022/06/13 14:05:24;;;;;;;5.45;1.17;;;18.10;52.00;;;;;;4939199;29;20055;-83
2022/06/13 14:08:05;;;;;;;5.78;1.30;;;17.80;52.40;;;;;;4955465;29;20057;-83
2022/06/13 14:10:39;;;;;;;5.47;1.00;;;17.70;53.00;;;;;;4944917;29;20054;-83